createdAt,value
2018-12-20T00:01:13.715Z,80.08
2018-12-20T00:03:42.249Z,80.22
2018-12-20T00:06:11.229Z,80.31
2018-12-20T00:08:39.554Z,80.55
2018-12-20T00:11:09.739Z,80.88
2018-12-20T00:13:38.704Z,81.54
2018-12-20T00:16:07.835Z,80.84
2018-12-20T00:18:36.774Z,81.66
2018-12-20T00:21:05.969Z,81.50
2018-12-20T00:23:34.649Z,81.51
2018-12-20T00:26:03.914Z,81.69
2018-12-20T00:28:32.217Z,82.00
2018-12-20T00:31:00.856Z,82.34
2018-12-20T00:33:29.267Z,82.32
2018-12-20T00:35:58.211Z,82.71
2018-12-20T00:38:26.804Z,82.52
2018-12-20T00:40:55.485Z,82.21
2018-12-20T00:43:23.838Z,82.62
2018-12-20T00:45:53.580Z,83.04
2018-12-20T00:48:22.149Z,82.63
2018-12-20T00:50:50.536Z,83.77
2018-12-20T00:53:19.539Z,83.62
2018-12-20T00:55:48.199Z,84.21
2018-12-20T00:58:16.917Z,84.47
2018-12-20T01:00:45.407Z,83.82
2018-12-20T01:03:14.187Z,83.78
2018-12-20T01:05:42.826Z,84.68
2018-12-20T01:08:11.330Z,84.59
2018-12-20T01:10:39.607Z,84.62
2018-12-20T01:13:07.979Z,84.89
2018-12-20T01:15:37.087Z,84.89
2018-12-20T01:18:05.440Z,85.37
2018-12-20T01:20:34.423Z,84.87
2018-12-20T01:23:03.084Z,85.57
2018-12-20T01:25:31.874Z,85.55
2018-12-20T01:28:00.510Z,85.11
2018-12-20T01:30:28.992Z,84.92
2018-12-20T01:32:57.381Z,85.87
2018-12-20T01:35:25.750Z,84.17
2018-12-20T01:37:54.458Z,84.10
2018-12-20T01:40:22.911Z,84.92
2018-12-20T01:42:52.736Z,84.61
2018-12-20T01:45:22.307Z,83.62
2018-12-20T01:47:50.727Z,83.94
2018-12-20T01:50:18.984Z,82.83
2018-12-20T01:52:47.320Z,82.58
2018-12-20T01:57:54.921Z,83.46
2018-12-20T02:00:23.778Z,82.54
2018-12-20T02:02:52.158Z,82.68
2018-12-20T02:05:20.493Z,82.52
2018-12-20T02:07:49.041Z,83.03
2018-12-20T02:10:17.402Z,82.21
2018-12-20T02:12:46.005Z,82.42
2018-12-20T02:15:14.700Z,83.01
2018-12-20T02:17:43.562Z,83.03
2018-12-20T02:20:12.302Z,83.10
2018-12-20T02:22:40.558Z,83.14
2018-12-20T02:25:08.851Z,83.49
2018-12-20T02:27:37.315Z,84.39
2018-12-20T02:30:07.874Z,84.86
2018-12-20T02:32:36.409Z,85.51
2018-12-20T02:35:05.657Z,84.99
2018-12-20T02:37:34.092Z,84.70
2018-12-20T02:40:02.497Z,85.55
2018-12-20T02:42:31.049Z,84.97
2018-12-20T02:45:10.512Z,85.54
2018-12-20T02:47:32.186Z,83.31
2018-12-20T02:50:00.574Z,83.41
2018-12-20T02:52:30.204Z,82.89
2018-12-20T02:54:58.857Z,81.97
2018-12-20T02:57:27.887Z,81.70
2018-12-20T02:59:56.401Z,81.88
2018-12-20T03:02:25.043Z,81.84
2018-12-20T03:04:53.957Z,83.26
2018-12-20T03:07:22.719Z,82.19
2018-12-20T03:09:52.093Z,82.23
2018-12-20T03:12:21.158Z,81.81
2018-12-20T03:14:49.795Z,81.64
2018-12-20T03:17:18.655Z,82.35
2018-12-20T03:19:47.117Z,83.34
2018-12-20T03:22:15.717Z,82.80
2018-12-20T03:24:44.365Z,82.94
2018-12-20T03:27:13.493Z,83.89
2018-12-20T03:29:42.494Z,84.79
2018-12-20T03:32:11.980Z,85.90
2018-12-20T03:34:40.464Z,85.68
2018-12-20T03:37:09.179Z,85.76
2018-12-20T03:39:38.365Z,85.89
2018-12-20T03:42:07.066Z,84.21
2018-12-20T03:44:35.902Z,84.38
2018-12-20T03:47:04.325Z,84.41
2018-12-20T03:49:33.078Z,83.98
2018-12-20T03:52:01.657Z,85.34
2018-12-20T03:54:30.243Z,85.54
2018-12-20T03:56:58.671Z,84.77
2018-12-20T03:59:27.445Z,84.58
2018-12-20T04:01:55.997Z,84.07
2018-12-20T04:04:24.327Z,83.23
2018-12-20T04:06:52.620Z,83.28
2018-12-20T04:09:21.325Z,83.35
2018-12-20T04:11:50.198Z,82.32
2018-12-20T04:14:18.486Z,81.81
2018-12-20T04:16:46.718Z,82.12
2018-12-20T04:19:15.078Z,82.03
2018-12-20T04:21:43.684Z,82.02
2018-12-20T04:24:12.313Z,82.89
2018-12-20T04:26:40.943Z,82.68
2018-12-20T04:29:12.284Z,82.65
2018-12-20T04:31:40.916Z,82.10
2018-12-20T04:34:09.277Z,82.44
2018-12-20T04:36:37.938Z,81.47
2018-12-20T04:39:07.779Z,81.15
2018-12-20T04:41:37.131Z,82.38
2018-12-20T04:44:05.486Z,81.45
2018-12-20T04:46:34.461Z,81.13
2018-12-20T04:49:03.174Z,80.33
2018-12-20T04:51:31.939Z,81.07
2018-12-20T04:54:00.535Z,81.01
2018-12-20T04:56:28.939Z,80.58
2018-12-20T04:58:57.758Z,81.82
2018-12-20T05:01:26.207Z,81.86
2018-12-20T05:03:54.500Z,81.32
2018-12-20T05:06:23.361Z,81.80
2018-12-20T05:08:51.811Z,81.78
2018-12-20T05:11:20.315Z,80.83
2018-12-20T05:13:49.193Z,80.75
2018-12-20T05:16:17.566Z,81.30
2018-12-20T05:18:45.960Z,80.08
2018-12-20T05:21:14.490Z,81.24
2018-12-20T05:23:42.961Z,80.87
2018-12-20T05:26:11.525Z,81.06
2018-12-20T05:28:39.804Z,81.74
2018-12-20T05:31:08.826Z,81.69
2018-12-20T05:33:37.840Z,82.06
2018-12-20T05:36:07.074Z,83.20
2018-12-20T05:38:35.471Z,82.79
2018-12-20T05:41:03.882Z,81.65
2018-12-20T05:43:32.764Z,81.97
2018-12-20T05:46:04.658Z,81.08
2018-12-20T05:48:32.513Z,81.18
2018-12-20T05:51:01.303Z,81.22
2018-12-20T05:53:30.346Z,81.64
2018-12-20T05:55:58.994Z,81.55
2018-12-20T05:58:27.569Z,81.53
2018-12-20T06:00:55.980Z,79.99
2018-12-20T06:03:24.373Z,80.34
2018-12-20T06:05:52.634Z,80.47
2018-12-20T06:08:21.253Z,81.06
2018-12-20T06:10:49.677Z,80.33
2018-12-20T06:13:18.107Z,80.70
2018-12-20T06:15:47.180Z,81.35
2018-12-20T06:18:15.858Z,80.79
2018-12-20T06:20:44.274Z,80.52
2018-12-20T06:23:12.970Z,81.00
2018-12-20T06:25:41.661Z,81.38
2018-12-20T06:28:09.931Z,81.43
2018-12-20T06:30:38.300Z,81.26
2018-12-20T06:33:06.524Z,81.20
2018-12-20T06:35:35.113Z,81.00
2018-12-20T06:38:03.342Z,81.62
2018-12-20T06:40:31.564Z,81.43
2018-12-20T06:43:01.006Z,81.40
2018-12-20T06:45:29.267Z,81.33
2018-12-20T06:47:58.083Z,81.05
2018-12-20T06:50:26.412Z,81.03
2018-12-20T06:52:54.674Z,80.44
2018-12-20T06:55:24.471Z,81.18
2018-12-20T06:57:54.805Z,81.32
2018-12-20T07:00:23.977Z,82.11
2018-12-20T07:02:53.106Z,83.15
2018-12-20T07:05:21.420Z,82.24
2018-12-20T07:07:49.930Z,83.00
2018-12-20T07:10:18.545Z,83.69
2018-12-20T07:12:47.973Z,82.64
2018-12-20T07:15:17.473Z,83.45
2018-12-20T07:17:45.683Z,83.35
2018-12-20T07:20:14.051Z,82.42
2018-12-20T07:22:42.655Z,82.43
2018-12-20T07:25:10.921Z,82.57
2018-12-20T07:27:39.471Z,81.68
2018-12-20T07:30:09.912Z,81.62
2018-12-20T07:32:39.778Z,81.09
2018-12-20T07:35:08.145Z,80.08
2018-12-20T07:37:36.699Z,81.04
2018-12-20T07:40:07.629Z,79.78
2018-12-20T07:42:36.408Z,81.74
2018-12-20T07:45:06.878Z,81.64
2018-12-20T07:47:35.196Z,80.64
2018-12-20T07:50:06.195Z,80.13
2018-12-20T07:52:34.409Z,81.82
2018-12-20T07:55:03.333Z,81.79
2018-12-20T07:57:31.663Z,80.22
2018-12-20T08:00:00.248Z,80.40
2018-12-20T08:02:29.482Z,80.17
2018-12-20T08:04:57.991Z,79.16
2018-12-20T08:07:26.309Z,80.80
2018-12-20T08:09:54.705Z,79.70
2018-12-20T08:12:23.341Z,78.66
2018-12-20T08:14:52.225Z,79.29
2018-12-20T08:17:20.808Z,77.37
2018-12-20T08:19:50.512Z,77.72
2018-12-20T08:22:19.364Z,76.55
2018-12-20T08:24:47.613Z,76.91
2018-12-20T08:29:56.521Z,75.40
2018-12-20T08:32:24.901Z,77.94
2018-12-20T08:34:53.810Z,76.76
2018-12-20T08:37:22.142Z,75.60
2018-12-20T08:39:50.774Z,77.00
2018-12-20T08:42:19.123Z,77.39
2018-12-20T08:44:48.269Z,76.57
2018-12-20T08:47:16.605Z,76.36
2018-12-20T08:49:45.549Z,75.87
2018-12-20T08:52:13.840Z,75.41
2018-12-20T08:54:42.085Z,76.44
2018-12-20T08:57:10.812Z,76.60
2018-12-20T08:59:40.276Z,74.40
2018-12-20T09:02:09.027Z,74.22
2018-12-20T09:04:37.704Z,73.79
2018-12-20T09:07:06.536Z,73.93
2018-12-20T09:09:35.429Z,74.12
2018-12-20T09:12:04.667Z,74.68
2018-12-20T09:14:33.214Z,75.02
2018-12-20T09:17:03.083Z,74.82
2018-12-20T09:19:31.715Z,74.85
2018-12-20T09:22:02.155Z,73.28
2018-12-20T09:24:33.381Z,72.65
2018-12-20T09:27:10.652Z,72.22
2018-12-20T09:29:49.629Z,72.68
2018-12-20T09:32:25.870Z,73.87
2018-12-20T09:34:57.868Z,73.82
2018-12-20T09:37:31.348Z,73.61
2018-12-20T09:40:02.507Z,73.51
2018-12-20T09:42:38.114Z,73.19
2018-12-20T09:45:10.219Z,73.22
2018-12-20T09:47:45.541Z,73.05
2018-12-20T09:50:16.859Z,72.47
2018-12-20T09:52:48.075Z,71.20
2018-12-20T09:55:19.777Z,71.12
2018-12-20T09:57:50.784Z,69.48
2018-12-20T10:00:22.518Z,68.39
2018-12-20T10:02:53.335Z,67.70
2018-12-20T10:05:23.969Z,68.53
2018-12-20T10:07:55.888Z,67.31
2018-12-20T10:10:26.813Z,66.70
2018-12-20T10:12:57.870Z,66.89
2018-12-20T10:15:30.127Z,66.31
2018-12-20T10:18:01.399Z,65.88
2018-12-20T10:20:32.531Z,65.66
2018-12-20T10:23:04.207Z,65.44
2018-12-20T10:25:35.430Z,65.27
2018-12-20T10:28:07.251Z,64.80
2018-12-20T10:30:37.851Z,65.59
2018-12-20T10:33:09.861Z,64.58
2018-12-20T10:35:41.028Z,65.20
2018-12-20T10:38:12.687Z,64.61
2018-12-20T10:40:43.415Z,65.30
2018-12-20T10:43:14.599Z,65.75
2018-12-20T10:45:45.901Z,65.42
2018-12-20T10:48:18.777Z,65.42
2018-12-20T10:50:50.434Z,65.72
2018-12-20T10:53:22.581Z,65.95
2018-12-20T10:55:53.727Z,66.67
2018-12-20T10:58:25.352Z,66.50
2018-12-20T11:01:01.302Z,65.82
2018-12-20T11:03:37.809Z,67.12
2018-12-20T11:06:14.173Z,66.04
2018-12-20T11:08:50.312Z,66.42
2018-12-20T11:11:21.667Z,66.31
2018-12-20T11:13:53.252Z,65.95
2018-12-20T11:16:24.405Z,66.18
2018-12-20T11:18:56.324Z,65.94
2018-12-20T11:21:27.306Z,67.07
2018-12-20T11:23:59.032Z,66.38
2018-12-20T11:26:30.444Z,66.88
2018-12-20T11:29:02.340Z,66.74
2018-12-20T11:31:34.375Z,66.30
2018-12-20T11:34:05.649Z,66.77
2018-12-20T11:36:37.968Z,66.51
2018-12-20T11:39:09.189Z,68.15
2018-12-20T11:41:41.018Z,67.82
2018-12-20T11:44:12.519Z,68.55
2018-12-20T11:46:43.970Z,68.70
2018-12-20T11:49:17.016Z,68.68
2018-12-20T11:51:48.788Z,68.35
2018-12-20T11:54:21.955Z,68.80
2018-12-20T11:56:56.381Z,68.16
2018-12-20T11:59:27.212Z,67.99
2018-12-20T12:01:58.012Z,67.33
2018-12-20T12:04:30.735Z,66.84
2018-12-20T12:07:01.545Z,67.22
2018-12-20T12:09:33.391Z,67.09
2018-12-20T12:12:05.190Z,66.70
2018-12-20T12:14:36.596Z,66.66
2018-12-20T12:17:08.567Z,66.79
2018-12-20T12:19:39.066Z,66.12
2018-12-20T12:22:10.700Z,65.65
2018-12-20T12:24:43.239Z,64.89
2018-12-20T12:27:14.919Z,65.12
2018-12-20T12:30:02.269Z,64.96
2018-12-20T12:32:49.924Z,65.50
2018-12-20T12:35:31.022Z,66.22
2018-12-20T12:38:11.498Z,65.55
2018-12-20T12:40:40.279Z,64.95
2018-12-20T12:43:08.797Z,65.60
2018-12-20T12:45:38.306Z,64.50
2018-12-20T12:48:06.652Z,66.11
2018-12-20T12:50:35.285Z,64.78
2018-12-20T12:53:03.598Z,65.16
2018-12-20T12:55:32.026Z,64.91
2018-12-20T12:58:04.644Z,64.68
2018-12-20T13:00:31.140Z,64.22
2018-12-20T13:03:00.032Z,64.20
2018-12-20T13:05:28.933Z,63.32
2018-12-20T13:07:57.237Z,62.86
2018-12-20T13:10:25.785Z,61.18
2018-12-20T13:12:54.181Z,58.17
2018-12-20T13:15:23.969Z,56.44
2018-12-20T13:17:53.381Z,58.00
2018-12-20T13:20:22.536Z,58.73
2018-12-20T13:22:51.191Z,59.98
2018-12-20T13:28:35.612Z,62.24
2018-12-20T13:31:04.069Z,63.44
2018-12-20T13:33:32.623Z,63.81
2018-12-20T13:38:40.957Z,64.40
2018-12-20T13:41:10.032Z,64.81
2018-12-20T13:43:38.435Z,65.01
2018-12-20T13:46:07.547Z,61.69
2018-12-20T13:48:36.104Z,60.86
2018-12-20T13:51:05.616Z,62.95
2018-12-20T13:53:33.928Z,63.67
2018-12-20T13:56:02.640Z,64.47
2018-12-20T13:58:31.169Z,64.44
2018-12-20T14:01:00.016Z,64.93
2018-12-20T14:03:28.232Z,63.74
2018-12-20T14:05:56.763Z,62.04
2018-12-20T14:08:25.453Z,56.34
2018-12-20T14:10:53.741Z,54.83
2018-12-20T14:13:22.062Z,54.55
2018-12-20T14:15:50.645Z,57.79
2018-12-20T14:18:19.894Z,61.34
2018-12-20T14:20:48.687Z,61.85
2018-12-20T14:23:17.218Z,60.52
2018-12-20T14:25:45.733Z,60.94
2018-12-20T14:28:14.483Z,62.02
2018-12-20T14:30:42.763Z,57.50
2018-12-20T14:33:11.089Z,54.87
2018-12-20T14:35:39.738Z,57.81
2018-12-20T14:38:08.023Z,61.21
2018-12-20T14:40:37.029Z,61.90
2018-12-20T14:43:05.297Z,63.55
2018-12-20T14:45:34.480Z,64.36
2018-12-20T14:48:09.574Z,64.72
2018-12-20T14:50:38.221Z,65.61
2018-12-20T14:53:06.824Z,64.47
2018-12-20T14:55:35.485Z,65.77
2018-12-20T14:58:04.232Z,65.92
2018-12-20T15:00:32.457Z,65.15
2018-12-20T15:03:01.872Z,64.50
2018-12-20T15:05:30.108Z,65.28
2018-12-20T15:07:59.095Z,65.54
2018-12-20T15:10:27.361Z,65.76
2018-12-20T15:12:55.663Z,67.28
2018-12-20T15:15:24.208Z,67.22
2018-12-20T15:20:40.251Z,68.05
2018-12-20T15:23:03.789Z,68.24
2018-12-20T15:25:32.149Z,68.72
2018-12-20T15:28:00.609Z,68.97
2018-12-20T15:30:29.074Z,69.77
2018-12-20T15:32:58.133Z,70.08
2018-12-20T15:35:26.685Z,69.92
2018-12-20T15:37:55.151Z,71.15
2018-12-20T15:40:23.384Z,71.02
2018-12-20T15:42:51.851Z,71.25
2018-12-20T15:45:20.128Z,71.11
2018-12-20T15:47:48.414Z,71.41
2018-12-20T15:50:16.864Z,71.95
2018-12-20T15:52:46.633Z,71.95
2018-12-20T15:55:15.278Z,71.68
2018-12-20T15:57:44.577Z,71.57
2018-12-20T16:00:12.860Z,72.16
2018-12-20T16:02:41.803Z,71.71
2018-12-20T16:05:10.476Z,72.13
2018-12-20T16:07:38.816Z,72.66
2018-12-20T16:10:09.301Z,72.02
2018-12-20T16:15:18.460Z,72.47
2018-12-20T16:17:47.118Z,72.57
2018-12-20T16:20:15.651Z,72.95
2018-12-20T16:22:44.037Z,73.98
2018-12-20T16:25:12.764Z,73.56
2018-12-20T16:27:41.089Z,73.76
2018-12-20T16:30:11.133Z,73.20
2018-12-20T16:32:39.703Z,74.18
2018-12-20T16:35:08.535Z,73.26
2018-12-20T16:37:37.218Z,72.91
2018-12-20T16:40:06.551Z,73.21
2018-12-20T16:42:38.173Z,73.76
2018-12-20T16:45:07.508Z,73.55
2018-12-20T16:47:35.905Z,74.02
2018-12-20T16:50:07.091Z,74.06
2018-12-20T16:52:35.996Z,74.96
2018-12-20T16:55:05.708Z,74.88
2018-12-20T16:57:34.769Z,74.98
2018-12-20T17:00:03.662Z,75.55
2018-12-20T17:02:35.066Z,75.92
2018-12-20T17:05:03.639Z,76.17
2018-12-20T17:07:31.944Z,76.33
2018-12-20T17:10:00.757Z,77.16
2018-12-20T17:12:28.998Z,77.13
2018-12-20T17:14:57.537Z,75.94
2018-12-20T17:17:25.800Z,75.24
2018-12-20T17:19:54.235Z,74.96
2018-12-20T17:22:22.796Z,75.11
2018-12-20T17:24:51.540Z,75.00
2018-12-20T17:27:19.971Z,75.40
2018-12-20T17:29:49.346Z,75.00
2018-12-20T17:32:17.673Z,74.05
2018-12-20T17:34:47.070Z,75.06
2018-12-20T17:37:15.600Z,74.85
2018-12-20T17:39:44.166Z,74.81
2018-12-20T17:42:14.019Z,74.84
2018-12-20T17:44:42.355Z,74.12
2018-12-20T17:47:11.030Z,75.10
2018-12-20T17:49:39.325Z,75.09
2018-12-20T17:52:07.781Z,75.80
2018-12-20T17:54:36.173Z,75.96
2018-12-20T17:57:05.563Z,75.76
2018-12-20T17:59:33.842Z,75.91
2018-12-20T18:02:02.534Z,75.56
2018-12-20T18:04:31.592Z,75.03
2018-12-20T18:07:00.404Z,75.46
2018-12-20T18:09:28.774Z,74.51
2018-12-20T18:11:58.177Z,75.78
2018-12-20T18:14:26.873Z,75.28
2018-12-20T18:16:55.505Z,75.12
2018-12-20T18:19:23.980Z,73.96
2018-12-20T18:21:54.381Z,74.33
2018-12-20T18:24:22.725Z,74.26
2018-12-20T18:26:51.175Z,73.62
2018-12-20T18:29:19.923Z,73.54
2018-12-20T18:31:49.039Z,74.24
2018-12-20T18:34:18.078Z,74.34
2018-12-20T18:36:46.738Z,74.72
2018-12-20T18:39:15.663Z,74.76
2018-12-20T18:41:44.239Z,74.85
2018-12-20T18:44:14.221Z,74.28
2018-12-20T18:46:43.226Z,74.59
2018-12-20T18:49:12.156Z,74.00
2018-12-20T18:51:40.640Z,74.36
2018-12-20T18:54:08.962Z,73.70
2018-12-20T18:56:38.191Z,73.65
2018-12-20T18:59:07.977Z,74.33
2018-12-20T19:01:36.909Z,73.71
2018-12-20T19:04:05.273Z,74.14
2018-12-20T19:06:34.086Z,74.15
2018-12-20T19:09:02.498Z,73.61
2018-12-20T19:11:32.251Z,73.40
2018-12-20T19:14:01.227Z,73.67
2018-12-20T19:16:29.688Z,74.27
2018-12-20T19:18:57.878Z,73.62
2018-12-20T19:21:26.243Z,73.39
2018-12-20T19:23:56.087Z,74.23
2018-12-20T19:26:24.375Z,73.68
2018-12-20T19:28:53.564Z,73.87
2018-12-20T19:31:22.219Z,74.13
2018-12-20T19:33:52.183Z,74.52
2018-12-20T19:36:22.421Z,74.80
2018-12-20T19:38:50.734Z,74.62
2018-12-20T19:41:20.804Z,73.97
2018-12-20T19:43:49.284Z,73.55
2018-12-20T19:46:18.285Z,74.22
2018-12-20T19:48:46.546Z,73.65
2018-12-20T19:51:14.841Z,73.95
2018-12-20T19:53:43.170Z,73.74
2018-12-20T19:56:11.563Z,73.49
2018-12-20T19:58:40.082Z,73.28
2018-12-20T20:01:08.559Z,73.92
2018-12-20T20:03:36.808Z,73.38
2018-12-20T20:06:05.447Z,73.64
2018-12-20T20:08:34.489Z,73.25
2018-12-20T20:11:03.685Z,73.91
2018-12-20T20:13:32.288Z,74.08
2018-12-20T20:16:01.234Z,74.34
2018-12-20T20:18:30.464Z,73.59
2018-12-20T20:20:59.706Z,73.37
2018-12-20T20:23:28.542Z,74.04
2018-12-20T20:25:57.040Z,73.97
2018-12-20T20:28:26.479Z,73.76
2018-12-20T20:30:55.120Z,73.73
2018-12-20T20:33:24.223Z,73.58
2018-12-20T20:35:52.724Z,73.86
2018-12-20T20:38:21.192Z,73.51
2018-12-20T20:40:49.497Z,73.87
2018-12-20T20:43:19.094Z,74.30
2018-12-20T20:45:48.367Z,73.55
2018-12-20T20:48:17.782Z,74.30
2018-12-20T20:50:46.117Z,73.86
2018-12-20T20:53:14.544Z,74.48
2018-12-20T20:55:49.891Z,74.29
2018-12-20T20:58:19.605Z,75.27
2018-12-20T21:00:50.782Z,75.13
2018-12-20T21:03:19.380Z,75.17
2018-12-20T21:05:48.493Z,75.12
2018-12-20T21:08:17.669Z,75.09
2018-12-20T21:10:45.950Z,74.64
2018-12-20T21:13:14.307Z,75.27
2018-12-20T21:15:43.314Z,74.48
2018-12-20T21:18:13.078Z,74.36
2018-12-20T21:20:42.397Z,74.27
2018-12-20T21:23:10.923Z,74.75
2018-12-20T21:25:39.729Z,74.83
2018-12-20T21:28:08.027Z,75.16
2018-12-20T21:30:36.368Z,75.31
2018-12-20T21:33:05.893Z,74.44
2018-12-20T21:35:34.285Z,74.49
2018-12-20T21:38:03.197Z,75.53
2018-12-20T21:40:32.013Z,74.87
2018-12-20T21:43:00.500Z,75.17
2018-12-20T21:45:29.358Z,75.46
2018-12-20T21:47:57.765Z,76.12
2018-12-20T21:50:26.929Z,75.50
2018-12-20T21:52:56.090Z,75.91
2018-12-20T21:55:24.699Z,76.42
2018-12-20T21:57:53.025Z,76.42
2018-12-20T22:00:21.331Z,75.59
2018-12-20T22:02:49.672Z,75.50
2018-12-20T22:05:17.956Z,75.50
2018-12-20T22:07:46.736Z,75.98
2018-12-20T22:10:15.525Z,76.09
2018-12-20T22:12:44.928Z,76.11
2018-12-20T22:15:13.571Z,75.24
2018-12-20T22:17:42.129Z,75.17
2018-12-20T22:20:10.717Z,75.81
2018-12-20T22:22:39.178Z,76.57
2018-12-20T22:25:07.826Z,75.55
2018-12-20T22:27:36.191Z,76.23
2018-12-20T22:30:06.409Z,75.73
2018-12-20T22:32:34.644Z,75.91
2018-12-20T22:35:03.073Z,75.90
2018-12-20T22:37:31.716Z,75.51
2018-12-20T22:40:00.071Z,76.32
2018-12-20T22:42:28.458Z,75.44
2018-12-20T22:44:57.564Z,76.02
2018-12-20T22:47:26.249Z,76.24
2018-12-20T22:49:54.782Z,76.21
2018-12-20T22:52:24.260Z,75.95
2018-12-20T22:54:52.554Z,75.20
2018-12-20T22:57:21.114Z,74.90
2018-12-20T22:59:49.617Z,75.68
2018-12-20T23:02:18.448Z,75.52
2018-12-20T23:04:47.092Z,75.14
2018-12-20T23:07:16.020Z,75.71
2018-12-20T23:09:44.461Z,75.50
2018-12-20T23:12:13.456Z,75.97
2018-12-20T23:14:41.956Z,75.24
2018-12-20T23:17:10.566Z,76.29
2018-12-20T23:19:39.021Z,77.05
2018-12-20T23:24:48.298Z,75.57
2018-12-20T23:27:17.048Z,75.73
2018-12-20T23:29:45.665Z,75.78
2018-12-20T23:32:14.847Z,75.84
2018-12-20T23:34:43.368Z,75.75
2018-12-20T23:37:12.005Z,75.98
2018-12-20T23:39:40.585Z,76.58
2018-12-20T23:42:09.343Z,77.53
2018-12-20T23:44:38.180Z,77.52
2018-12-20T23:47:06.517Z,77.17
2018-12-20T23:49:36.217Z,76.89
2018-12-20T23:52:05.260Z,77.11
2018-12-20T23:54:33.845Z,77.91
2018-12-20T23:57:02.157Z,77.31
2018-12-20T23:59:31.019Z,76.89
